sensor_id;sensor_type;location;lat;lon;timestamp;temperature;humidity
29255;DHT22;16277;48.890;2.306;2023-07-20T00:04:23;22.10;93.50
29255;DHT22;16277;48.890;2.306;2023-07-20T00:19:28;22.10;94.00
29255;DHT22;16277;48.890;2.306;2023-07-20T00:34:32;21.60;94.50
29255;DHT22;16277;48.890;2.306;2023-07-20T00:49:37;22.60;93.30
29255;DHT22;16277;48.890;2.306;2023-07-20T01:04:42;21.50;95.10
29255;DHT22;16277;48.890;2.306;2023-07-20T01:19:46;21.60;95.50
29255;DHT22;16277;48.890;2.306;2023-07-20T01:34:52;21.30;96.40
29255;DHT22;16277;48.890;2.306;2023-07-20T01:49:58;21.90;95.70
29255;DHT22;16277;48.890;2.306;2023-07-20T02:05:03;22.20;95.70
29255;DHT22;16277;48.890;2.306;2023-07-20T02:20:08;22.00;95.70
29255;DHT22;16277;48.890;2.306;2023-07-20T02:35:13;21.50;96.30
29255;DHT22;16277;48.890;2.306;2023-07-20T02:50:18;21.10;97.70
29255;DHT22;16277;48.890;2.306;2023-07-20T03:05:23;21.10;98.10
29255;DHT22;16277;48.890;2.306;2023-07-20T03:20:28;21.10;98.10
29255;DHT22;16277;48.890;2.306;2023-07-20T03:35:33;21.00;98.60
29255;DHT22;16277;48.890;2.306;2023-07-20T03:50:39;21.30;98.00
29255;DHT22;16277;48.890;2.306;2023-07-20T04:05:45;21.20;98.40
29255;DHT22;16277;48.890;2.306;2023-07-20T04:20:49;20.70;99.70
29255;DHT22;16277;48.890;2.306;2023-07-20T04:35:54;20.30;99.90
29255;DHT22;16277;48.890;2.306;2023-07-20T04:51:11;20.00;99.90
29255;DHT22;16277;48.890;2.306;2023-07-20T05:06:16;20.80;99.90
29255;DHT22;16277;48.890;2.306;2023-07-20T05:21:21;19.90;99.90
29255;DHT22;16277;48.890;2.306;2023-07-20T05:36:26;20.30;99.90
29255;DHT22;16277;48.890;2.306;2023-07-20T05:51:34;19.50;99.90
29255;DHT22;16277;48.890;2.306;2023-07-20T06:06:39;20.30;99.90
29255;DHT22;16277;48.890;2.306;2023-07-20T06:21:43;19.60;99.90
29255;DHT22;16277;48.890;2.306;2023-07-20T06:36:48;19.80;99.90
29255;DHT22;16277;48.890;2.306;2023-07-20T06:51:53;19.40;99.90
29255;DHT22;16277;48.890;2.306;2023-07-20T07:06:57;20.10;99.90
29255;DHT22;16277;48.890;2.306;2023-07-20T07:22:02;19.40;99.90
29255;DHT22;16277;48.890;2.306;2023-07-20T07:37:11;20.70;99.90
29255;DHT22;16277;48.890;2.306;2023-07-20T07:52:16;20.60;99.90
29255;DHT22;16277;48.890;2.306;2023-07-20T08:07:20;21.20;99.90
29255;DHT22;16277;48.890;2.306;2023-07-20T08:22:25;21.10;99.90
29255;DHT22;16277;48.890;2.306;2023-07-20T08:37:29;21.40;99.90
29255;DHT22;16277;48.890;2.306;2023-07-20T08:52:35;21.70;99.90
29255;DHT22;16277;48.890;2.306;2023-07-20T09:07:40;21.40;99.90
29255;DHT22;16277;48.890;2.306;2023-07-20T09:22:45;22.20;98.60
29255;DHT22;16277;48.890;2.306;2023-07-20T09:37:54;21.80;98.50
29255;DHT22;16277;48.890;2.306;2023-07-20T09:53:02;21.70;96.00
29255;DHT22;16277;48.890;2.306;2023-07-20T10:08:11;22.10;93.00
29255;DHT22;16277;48.890;2.306;2023-07-20T10:23:19;22.60;90.40
29255;DHT22;16277;48.890;2.306;2023-07-20T10:38:39;23.20;89.20
29255;DHT22;16277;48.890;2.306;2023-07-20T10:53:44;23.00;90.20
29255;DHT22;16277;48.890;2.306;2023-07-20T11:08:50;23.40;87.90
29255;DHT22;16277;48.890;2.306;2023-07-20T11:24:03;23.50;82.30
29255;DHT22;16277;48.890;2.306;2023-07-20T11:39:08;23.40;80.40
29255;DHT22;16277;48.890;2.306;2023-07-20T11:54:13;23.80;78.50
29255;DHT22;16277;48.890;2.306;2023-07-20T12:09:18;23.70;74.00
29255;DHT22;16277;48.890;2.306;2023-07-20T12:24:22;24.30;73.10
29255;DHT22;16277;48.890;2.306;2023-07-20T12:39:27;24.60;72.10
29255;DHT22;16277;48.890;2.306;2023-07-20T12:54:31;24.90;69.40
29255;DHT22;16277;48.890;2.306;2023-07-20T13:09:37;25.10;67.80
29255;DHT22;16277;48.890;2.306;2023-07-20T13:24:44;25.30;67.90
29255;DHT22;16277;48.890;2.306;2023-07-20T13:39:49;25.30;67.00
29255;DHT22;16277;48.890;2.306;2023-07-20T13:54:53;25.90;65.50
29255;DHT22;16277;48.890;2.306;2023-07-20T14:09:58;27.80;60.50
29255;DHT22;16277;48.890;2.306;2023-07-20T14:25:06;28.30;58.90
29255;DHT22;16277;48.890;2.306;2023-07-20T14:40:12;26.60;61.50
29255;DHT22;16277;48.890;2.306;2023-07-20T14:55:17;27.10;61.60
29255;DHT22;16277;48.890;2.306;2023-07-20T15:10:22;27.90;60.40
29255;DHT22;16277;48.890;2.306;2023-07-20T15:25:27;27.40;58.50
29255;DHT22;16277;48.890;2.306;2023-07-20T15:40:33;26.90;59.20
29255;DHT22;16277;48.890;2.306;2023-07-20T15:55:37;26.30;58.40
29255;DHT22;16277;48.890;2.306;2023-07-20T16:10:42;26.20;59.30
29255;DHT22;16277;48.890;2.306;2023-07-20T16:25:47;26.00;58.70
29255;DHT22;16277;48.890;2.306;2023-07-20T16:40:55;25.80;59.70
29255;DHT22;16277;48.890;2.306;2023-07-20T16:56:00;25.80;60.30
29255;DHT22;16277;48.890;2.306;2023-07-20T17:11:04;25.60;61.20
29255;DHT22;16277;48.890;2.306;2023-07-20T17:26:09;25.20;62.60
29255;DHT22;16277;48.890;2.306;2023-07-20T17:41:17;25.20;62.40
29255;DHT22;16277;48.890;2.306;2023-07-20T17:56:22;25.30;63.10
29255;DHT22;16277;48.890;2.306;2023-07-20T18:11:26;25.30;62.60
29255;DHT22;16277;48.890;2.306;2023-07-20T18:26:30;25.40;62.60
29255;DHT22;16277;48.890;2.306;2023-07-20T18:41:35;25.40;64.00
29255;DHT22;16277;48.890;2.306;2023-07-20T18:56:40;25.30;63.80
29255;DHT22;16277;48.890;2.306;2023-07-20T19:11:44;25.30;64.20
29255;DHT22;16277;48.890;2.306;2023-07-20T19:26:51;25.30;64.10
29255;DHT22;16277;48.890;2.306;2023-07-20T19:41:56;25.20;63.60
29255;DHT22;16277;48.890;2.306;2023-07-20T19:57:00;25.00;63.50
29255;DHT22;16277;48.890;2.306;2023-07-20T20:12:25;24.90;65.80
29255;DHT22;16277;48.890;2.306;2023-07-20T20:27:29;24.40;77.70
29255;DHT22;16277;48.890;2.306;2023-07-20T20:42:34;24.00;80.70
29255;DHT22;16277;48.890;2.306;2023-07-20T20:57:38;24.20;81.90
29255;DHT22;16277;48.890;2.306;2023-07-20T21:12:43;23.60;83.30
29255;DHT22;16277;48.890;2.306;2023-07-20T21:27:47;23.70;81.90
29255;DHT22;16277;48.890;2.306;2023-07-20T21:42:52;24.10;81.10
29255;DHT22;16277;48.890;2.306;2023-07-20T21:57:56;23.10;82.00
29255;DHT22;16277;48.890;2.306;2023-07-20T22:13:01;23.90;81.00
29255;DHT22;16277;48.890;2.306;2023-07-20T22:28:06;22.90;84.70
29255;DHT22;16277;48.890;2.306;2023-07-20T22:43:11;22.30;87.20
29255;DHT22;16277;48.890;2.306;2023-07-20T22:58:15;22.60;86.00
29255;DHT22;16277;48.890;2.306;2023-07-20T23:13:20;22.40;86.10
29255;DHT22;16277;48.890;2.306;2023-07-20T23:28:26;22.00;86.20
29255;DHT22;16277;48.890;2.306;2023-07-20T23:43:32;23.10;83.10
29255;DHT22;16277;48.890;2.306;2023-07-20T23:58:37;22.10;84.60
